Time;durP1;ratioP1;P1;durP2;ratioP2;P2;SDS_P1;SDS_P2;PMS_P1;PMS_P2;Temp;Humidity;BMP_temperature;BMP_pressure;BME280_temperature;BME280_humidity;BME280_pressure;Samples;Min_cycle;Max_cycle;Signal;HPM_P1;HPM_P2
2022/07/25 00:00:30;;;;;;;10.13;9.13;;;21.80;64.00;;;;;;5115125;28;20126;-74
2022/07/25 00:02:56;;;;;;;9.40;8.50;;;21.60;64.70;;;;;;5113763;28;20016;-74
2022/07/25 00:05:22;;;;;;;11.52;9.80;;;21.60;64.80;;;;;;5113415;28;20106;-74
2022/07/25 00:07:48;;;;;;;10.82;9.45;;;21.50;65.00;;;;;;5113549;28;20137;-74
2022/07/25 00:10:13;;;;;;;10.25;8.65;;;21.50;65.10;;;;;;5113517;28;20031;-74
2022/07/25 00:12:39;;;;;;;11.45;9.35;;;21.50;65.00;;;;;;5113586;28;20029;-74
2022/07/25 00:15:05;;;;;;;10.07;8.65;;;21.50;65.10;;;;;;5113572;28;20024;-73
2022/07/25 00:17:31;;;;;;;10.95;8.63;;;21.50;65.30;;;;;;5129323;28;20364;-74
2022/07/25 00:19:57;;;;;;;11.43;9.15;;;21.40;64.90;;;;;;5113471;28;20024;-73
2022/07/25 00:22:22;;;;;;;11.55;9.32;;;21.50;64.90;;;;;;5113424;28;20039;-73
2022/07/25 00:24:48;;;;;;;11.68;9.30;;;21.50;64.70;;;;;;5113453;28;20519;-73
2022/07/25 00:27:13;;;;;;;10.40;9.20;;;21.50;64.80;;;;;;5113294;28;20024;-73
2022/07/25 00:29:39;;;;;;;10.48;9.30;;;21.50;64.60;;;;;;5113413;28;20059;-74
2022/07/25 00:32:05;;;;;;;10.05;9.05;;;21.60;64.40;;;;;;5113326;28;20102;-74
2022/07/25 00:34:31;;;;;;;11.10;8.48;;;21.60;64.30;;;;;;5129447;28;20028;-74
2022/07/25 00:36:56;;;;;;;13.18;9.27;;;21.60;64.00;;;;;;5113350;28;20032;-74
2022/07/25 00:39:22;;;;;;;11.98;8.90;;;21.70;63.60;;;;;;5113226;28;20026;-74
2022/07/25 00:41:47;;;;;;;9.23;8.32;;;21.70;63.40;;;;;;5113251;28;20097;-75
2022/07/25 00:44:23;;;;;;;9.63;8.60;;;21.70;63.40;;;;;;5113548;28;20015;-74
2022/07/25 00:46:48;;;;;;;10.30;9.20;;;21.70;63.30;;;;;;5117284;28;20055;-74
2022/07/25 00:49:14;;;;;;;12.15;9.23;;;21.70;63.20;;;;;;5117285;28;20074;-74
2022/07/25 00:51:40;;;;;;;9.20;8.27;;;21.70;63.20;;;;;;5117284;28;20440;-74
2022/07/25 00:54:05;;;;;;;10.57;9.02;;;21.70;63.20;;;;;;5117314;28;20077;-74
2022/07/25 00:56:31;;;;;;;9.55;8.65;;;21.70;63.20;;;;;;5116935;28;20480;-73
2022/07/25 00:58:57;;;;;;;11.45;9.40;;;21.70;62.80;;;;;;5117157;28;20122;-74
2022/07/25 01:01:23;;;;;;;11.95;9.20;;;21.70;62.50;;;;;;5116998;28;20093;-74
2022/07/25 01:03:48;;;;;;;11.07;8.82;;;21.70;62.60;;;;;;5117142;28;20051;-74
2022/07/25 01:06:14;;;;;;;12.52;8.88;;;21.70;62.60;;;;;;5116997;28;20027;-74
2022/07/25 01:08:40;;;;;;;10.32;9.25;;;21.60;62.80;;;;;;5116951;28;20031;-74
2022/07/25 01:11:06;;;;;;;9.50;8.65;;;21.60;62.80;;;;;;5116845;28;20035;-75
2022/07/25 01:13:33;;;;;;;9.73;8.40;;;21.50;63.00;;;;;;5116875;28;20028;-74
2022/07/25 01:15:59;;;;;;;11.73;9.55;;;21.50;63.20;;;;;;5116797;28;20396;-74
2022/07/25 01:18:24;;;;;;;11.40;8.90;;;21.40;63.00;;;;;;5116758;28;20023;-74
2022/07/25 01:20:50;;;;;;;10.02;9.00;;;21.40;63.00;;;;;;5124278;28;20035;-74
2022/07/25 01:23:15;;;;;;;9.55;8.63;;;21.40;63.20;;;;;;5116796;28;20024;-74
2022/07/25 01:25:41;;;;;;;11.40;8.73;;;21.40;63.20;;;;;;5127232;28;20027;-74
2022/07/25 01:28:07;;;;;;;9.75;8.85;;;21.30;63.30;;;;;;5122893;28;20020;-74
2022/07/25 01:30:32;;;;;;;10.93;9.68;;;21.30;63.60;;;;;;5116539;28;20055;-74
2022/07/25 01:32:58;;;;;;;12.15;9.07;;;21.30;63.60;;;;;;5116538;28;20016;-74
2022/07/25 01:35:24;;;;;;;10.38;8.82;;;21.30;63.70;;;;;;5116255;28;20040;-75
2022/07/25 01:37:50;;;;;;;9.65;8.65;;;21.20;63.60;;;;;;5116434;28;20019;-74
2022/07/25 01:40:15;;;;;;;10.52;9.38;;;21.20;63.70;;;;;;5116388;28;20028;-74
2022/07/25 01:42:42;;;;;;;12.48;9.20;;;21.20;63.90;;;;;;5132249;27;20049;-74
2022/07/25 01:45:09;;;;;;;8.98;8.15;;;21.10;64.00;;;;;;5116425;28;20035;-74
2022/07/25 01:47:34;;;;;;;9.77;8.65;;;21.20;64.10;;;;;;5116290;28;20062;-74
2022/07/25 01:50:00;;;;;;;9.20;8.30;;;21.10;64.50;;;;;;5116211;28;20061;-74
2022/07/25 01:52:26;;;;;;;9.90;8.43;;;21.00;64.50;;;;;;5115997;28;20036;-74
2022/07/25 01:54:51;;;;;;;14.30;9.68;;;21.00;64.50;;;;;;5116053;28;20050;-74
2022/07/25 01:57:17;;;;;;;9.52;8.57;;;21.10;64.50;;;;;;5115555;28;20404;-74
2022/07/25 01:59:42;;;;;;;11.57;8.90;;;21.10;64.20;;;;;;5115848;28;20034;-74
2022/07/25 02:02:08;;;;;;;10.13;9.02;;;21.20;64.00;;;;;;5115858;28;20100;-74
2022/07/25 02:04:35;;;;;;;9.77;8.68;;;21.10;64.00;;;;;;5115822;28;20460;-74
2022/07/25 02:07:01;;;;;;;10.77;8.55;;;21.10;64.10;;;;;;5115711;28;20023;-74
2022/07/25 02:09:27;;;;;;;9.90;8.63;;;21.20;64.00;;;;;;5115174;28;20104;-77
2022/07/25 02:11:52;;;;;;;10.88;8.85;;;21.10;64.30;;;;;;5115715;28;20027;-77
2022/07/25 02:14:18;;;;;;;9.82;8.82;;;21.10;64.30;;;;;;5115622;28;20026;-77
2022/07/25 02:16:43;;;;;;;10.75;8.95;;;21.10;64.30;;;;;;5115633;28;20032;-77
2022/07/25 02:19:09;;;;;;;9.57;8.63;;;21.10;64.30;;;;;;5115490;28;20020;-76
2022/07/25 02:21:34;;;;;;;14.63;9.60;;;21.00;64.20;;;;;;5115523;28;20043;-77
2022/07/25 02:24:00;;;;;;;10.15;8.63;;;20.90;64.70;;;;;;5115557;28;20521;-77
2022/07/25 02:26:26;;;;;;;9.70;8.70;;;20.90;64.90;;;;;;5115546;28;20031;-77
2022/07/25 02:28:52;;;;;;;10.27;9.23;;;20.90;65.00;;;;;;5115416;28;20121;-76
2022/07/25 02:31:17;;;;;;;11.48;8.82;;;20.80;65.00;;;;;;5115436;28;20379;-76
2022/07/25 02:33:43;;;;;;;10.02;9.00;;;20.90;64.90;;;;;;5115393;28;20055;-75
2022/07/25 02:36:09;;;;;;;10.73;9.40;;;20.90;64.60;;;;;;5115247;28;20031;-76
2022/07/25 02:38:35;;;;;;;9.85;8.70;;;21.00;64.40;;;;;;5115170;28;20034;-74
2022/07/25 02:41:01;;;;;;;10.02;9.02;;;20.90;64.40;;;;;;5115162;28;20032;-75
2022/07/25 02:43:26;;;;;;;11.70;9.02;;;20.90;64.40;;;;;;5114994;28;20049;-74
2022/07/25 02:45:52;;;;;;;9.55;8.40;;;21.00;64.10;;;;;;5115166;28;20024;-75
2022/07/25 02:48:18;;;;;;;9.88;8.88;;;21.00;63.80;;;;;;5114796;28;20020;-75
2022/07/25 02:50:43;;;;;;;9.93;8.52;;;21.10;63.70;;;;;;5130822;27;20077;-76
2022/07/25 02:53:09;;;;;;;10.52;8.98;;;21.10;63.60;;;;;;5130885;27;20024;-75
2022/07/25 02:55:34;;;;;;;9.80;8.77;;;21.10;63.30;;;;;;5114784;28;20027;-75
2022/07/25 02:58:00;;;;;;;10.82;9.65;;;21.10;63.10;;;;;;5114605;28;20035;-75
2022/07/25 03:00:26;;;;;;;9.88;8.50;;;21.10;62.70;;;;;;5114682;28;20084;-76
2022/07/25 03:02:51;;;;;;;11.80;9.20;;;21.20;62.50;;;;;;5114761;28;20080;-76
2022/07/25 03:05:17;;;;;;;10.40;9.30;;;21.30;61.90;;;;;;5114719;28;20028;-76
2022/07/25 03:07:44;;;;;;;10.38;8.85;;;21.30;61.50;;;;;;5113788;28;20027;-75
2022/07/25 03:10:11;;;;;;;9.68;8.68;;;21.40;61.20;;;;;;5114534;28;20035;-76
2022/07/25 03:12:37;;;;;;;10.27;8.48;;;21.40;61.20;;;;;;5114412;28;20392;-75
2022/07/25 03:15:04;;;;;;;10.70;8.80;;;21.40;60.70;;;;;;5114445;28;20203;-74
2022/07/25 03:17:29;;;;;;;10.00;8.90;;;21.40;60.90;;;;;;5114284;28;20111;-75
2022/07/25 03:19:55;;;;;;;11.52;8.80;;;21.40;61.00;;;;;;5114331;28;20103;-76
2022/07/25 03:22:22;;;;;;;12.13;9.20;;;21.40;60.90;;;;;;5114431;28;20081;-77
2022/07/25 03:24:48;;;;;;;10.18;8.73;;;21.40;60.80;;;;;;5114353;28;20016;-75
2022/07/25 03:27:14;;;;;;;12.32;8.75;;;21.40;60.70;;;;;;5114343;28;20115;-76
2022/07/25 03:29:40;;;;;;;8.98;8.07;;;21.40;60.40;;;;;;5120648;28;20020;-76
2022/07/25 03:32:07;;;;;;;10.40;8.48;;;21.50;60.10;;;;;;5123059;28;20032;-76
2022/07/25 03:34:33;;;;;;;11.48;8.48;;;21.60;59.70;;;;;;5117569;28;20019;-74
2022/07/25 03:36:59;;;;;;;9.30;7.85;;;21.60;59.40;;;;;;5114487;28;20042;-74
2022/07/25 03:39:25;;;;;;;12.75;9.18;;;21.60;59.40;;;;;;5113665;28;20028;-75
2022/07/25 03:41:51;;;;;;;9.43;8.32;;;21.70;59.40;;;;;;5114048;28;20479;-74
2022/07/25 03:44:18;;;;;;;9.07;8.18;;;21.80;59.30;;;;;;5113823;28;20460;-75
2022/07/25 03:46:43;;;;;;;9.57;7.88;;;21.90;59.10;;;;;;5113925;28;20121;-75
2022/07/25 03:49:09;;;;;;;10.77;8.75;;;21.80;58.90;;;;;;5113901;28;20051;-75
2022/07/25 03:51:34;;;;;;;11.43;8.52;;;21.90;59.10;;;;;;5113850;28;20028;-75
2022/07/25 03:54:03;;;;;;;10.60;9.18;;;21.80;59.00;;;;;;5113600;28;20468;-75
2022/07/25 03:56:30;;;;;;;10.68;8.73;;;21.70;59.20;;;;;;5113484;28;20069;-75
2022/07/25 03:58:56;;;;;;;13.45;9.88;;;21.60;59.40;;;;;;5113743;28;20023;-76
2022/07/25 04:01:22;;;;;;;10.18;9.00;;;21.60;59.80;;;;;;5113452;28;20115;-76
2022/07/25 04:03:47;;;;;;;9.95;8.82;;;21.50;60.10;;;;;;5113467;28;20032;-78
2022/07/25 04:06:13;;;;;;;8.70;7.82;;;21.50;60.40;;;;;;5113739;28;20472;-76
2022/07/25 04:08:38;;;;;;;9.30;8.25;;;21.50;60.40;;;;;;5113546;28;20480;-75
2022/07/25 04:11:04;;;;;;;10.70;9.60;;;21.60;60.40;;;;;;5113597;28;20027;-75
2022/07/25 04:13:30;;;;;;;10.25;8.10;;;21.60;60.10;;;;;;5113564;28;20019;-75
2022/07/25 04:15:55;;;;;;;9.27;8.30;;;21.70;60.30;;;;;;5129455;27;20047;-76
2022/07/25 04:18:21;;;;;;;8.27;7.47;;;21.70;59.70;;;;;;5113296;28;20024;-76
2022/07/25 04:20:46;;;;;;;11.73;8.27;;;21.80;59.00;;;;;;5112661;28;20027;-76
2022/07/25 04:23:12;;;;;;;9.50;8.50;;;21.90;58.60;;;;;;5113409;28;20510;-76
2022/07/25 04:25:38;;;;;;;8.95;7.60;;;22.00;58.50;;;;;;5113418;28;20353;-77
2022/07/25 04:28:03;;;;;;;8.48;7.18;;;22.10;58.20;;;;;;5113430;28;20468;-76
2022/07/25 04:30:29;;;;;;;9.30;7.60;;;22.20;57.60;;;;;;5113320;28;20012;-76
2022/07/25 04:32:55;;;;;;;11.38;8.65;;;22.30;57.20;;;;;;5129282;28;20247;-76
2022/07/25 04:35:21;;;;;;;11.98;9.18;;;22.40;56.70;;;;;;5113295;28;20036;-76
2022/07/25 04:37:47;;;;;;;13.02;8.80;;;22.50;56.20;;;;;;5113235;28;20388;-76
2022/07/25 04:40:12;;;;;;;9.65;7.30;;;22.70;55.90;;;;;;5113171;28;20102;-76
2022/07/25 04:42:38;;;;;;;8.10;7.00;;;22.90;55.00;;;;;;5113076;28;20031;-76
2022/07/25 04:45:04;;;;;;;10.32;7.63;;;23.00;54.30;;;;;;5113195;28;20037;-74
2022/07/25 04:47:29;;;;;;;10.57;7.38;;;23.20;53.70;;;;;;5113167;28;20112;-75
2022/07/25 04:49:55;;;;;;;11.07;7.70;;;23.30;53.10;;;;;;5111752;28;20055;-74
2022/07/25 04:52:20;;;;;;;8.82;7.55;;;23.50;52.60;;;;;;5112938;28;20047;-74
2022/07/25 04:54:46;;;;;;;10.48;8.15;;;23.60;52.10;;;;;;5112900;28;20464;-75
2022/07/25 04:57:11;;;;;;;9.10;7.35;;;23.70;51.90;;;;;;5112887;28;20087;-74
2022/07/25 04:59:37;;;;;;;8.13;7.32;;;23.80;51.70;;;;;;5112918;28;20451;-74
2022/07/25 05:02:03;;;;;;;8.55;6.80;;;23.90;51.60;;;;;;5112787;28;20023;-74
2022/07/25 05:04:28;;;;;;;8.60;7.40;;;24.00;51.50;;;;;;5112846;28;20043;-74
2022/07/25 05:06:54;;;;;;;8.65;7.75;;;24.10;51.60;;;;;;5112817;28;20028;-73
2022/07/25 05:09:19;;;;;;;11.73;7.95;;;24.10;52.30;;;;;;5112809;28;20169;-74
2022/07/25 05:11:45;;;;;;;9.45;8.48;;;24.20;51.50;;;;;;5112560;28;20030;-75
2022/07/25 05:14:10;;;;;;;11.30;7.95;;;24.30;51.50;;;;;;5112605;28;20028;-75
2022/07/25 05:16:36;;;;;;;9.85;7.90;;;24.40;51.20;;;;;;5112613;28;20016;-74
2022/07/25 05:19:02;;;;;;;14.80;8.60;;;24.50;51.50;;;;;;5128564;28;20059;-74
2022/07/25 05:21:28;;;;;;;10.43;8.10;;;24.70;51.30;;;;;;5112389;28;20089;-74
2022/07/25 05:23:53;;;;;;;8.40;7.50;;;24.70;51.20;;;;;;5112299;28;20024;-74
2022/07/25 05:26:19;;;;;;;8.00;7.15;;;24.80;51.40;;;;;;5112242;28;20436;-74
2022/07/25 05:28:44;;;;;;;7.28;6.57;;;24.80;51.40;;;;;;5112290;28;20028;-74
2022/07/25 05:31:10;;;;;;;8.70;7.78;;;24.90;51.20;;;;;;5113494;28;20024;-75
2022/07/25 05:33:36;;;;;;;9.10;8.20;;;24.90;51.30;;;;;;5115967;28;20027;-74
2022/07/25 05:36:03;;;;;;;10.98;8.27;;;25.00;51.70;;;;;;5115743;28;20375;-74
2022/07/25 05:38:28;;;;;;;10.05;8.93;;;25.10;52.20;;;;;;5115853;28;20054;-74
2022/07/25 05:40:54;;;;;;;9.75;8.25;;;25.20;52.30;;;;;;5115679;28;20071;-74
2022/07/25 05:43:20;;;;;;;10.10;9.10;;;25.30;52.20;;;;;;5115763;28;20022;-74
2022/07/25 05:45:48;;;;;;;9.55;8.63;;;25.40;52.60;;;;;;5115820;28;20039;-74
2022/07/25 05:48:14;;;;;;;10.60;8.60;;;25.50;52.70;;;;;;5115673;28;20027;-74
2022/07/25 05:50:40;;;;;;;9.95;8.95;;;25.60;52.60;;;;;;5115701;28;20028;-74
2022/07/25 05:53:06;;;;;;;12.18;10.60;;;25.70;52.10;;;;;;5115695;28;20031;-75
2022/07/25 05:55:32;;;;;;;12.23;10.10;;;25.80;52.70;;;;;;5115432;28;20059;-75
2022/07/25 05:57:58;;;;;;;11.98;9.95;;;25.80;52.40;;;;;;5115380;28;20128;-75
2022/07/25 06:00:23;;;;;;;10.48;9.35;;;25.90;52.50;;;;;;5114858;28;20031;-74
2022/07/25 06:02:49;;;;;;;10.18;9.18;;;26.00;53.00;;;;;;5115558;28;20498;-75
2022/07/25 06:05:15;;;;;;;13.10;10.30;;;26.10;52.60;;;;;;5120677;28;20031;-75
2022/07/25 06:07:40;;;;;;;12.02;9.40;;;26.20;52.50;;;;;;5120156;28;20023;-76
2022/07/25 06:10:07;;;;;;;25.83;11.38;;;26.30;51.40;;;;;;5115548;28;20460;-75
2022/07/25 06:12:32;;;;;;;13.05;10.50;;;26.30;51.50;;;;;;5115359;28;20035;-74
2022/07/25 06:14:59;;;;;;;10.68;9.57;;;26.40;51.30;;;;;;5115219;28;20015;-75
2022/07/25 06:17:25;;;;;;;15.70;10.65;;;26.50;51.00;;;;;;5115209;28;20074;-75
2022/07/25 06:19:50;;;;;;;10.23;9.23;;;26.60;50.80;;;;;;5114818;28;20055;-76
2022/07/25 06:22:18;;;;;;;12.77;9.95;;;26.70;50.50;;;;;;5114682;28;20462;-76
2022/07/25 06:24:44;;;;;;;13.20;9.70;;;26.80;49.80;;;;;;5115090;28;20012;-75
2022/07/25 06:27:10;;;;;;;11.45;9.88;;;26.90;50.00;;;;;;5114595;28;20036;-74
2022/07/25 06:29:36;;;;;;;9.93;8.93;;;27.00;49.70;;;;;;5114513;28;20076;-75
2022/07/25 06:32:02;;;;;;;10.60;9.25;;;27.00;49.30;;;;;;5114926;28;20070;-75
2022/07/25 06:34:28;;;;;;;10.38;9.20;;;27.20;49.20;;;;;;5114835;28;20028;-74
2022/07/25 06:36:53;;;;;;;13.55;9.68;;;27.30;49.00;;;;;;5114765;28;20034;-76
2022/07/25 06:39:19;;;;;;;10.98;9.85;;;27.30;48.60;;;;;;5114434;28;20034;-75
2022/07/25 06:41:44;;;;;;;9.77;8.80;;;27.40;48.10;;;;;;5129765;27;20145;-75
2022/07/25 06:44:10;;;;;;;10.32;9.25;;;27.50;47.90;;;;;;5114070;28;20027;-74
2022/07/25 06:46:36;;;;;;;11.05;8.90;;;27.60;47.80;;;;;;5114557;28;20404;-75
2022/07/25 06:49:01;;;;;;;16.55;14.10;;;27.60;47.30;;;;;;5114639;28;20024;-75
2022/07/25 06:51:27;;;;;;;12.98;11.18;;;27.80;46.90;;;;;;5114443;28;20023;-74
2022/07/25 06:53:52;;;;;;;11.55;10.35;;;27.80;46.60;;;;;;5114424;28;20362;-76
2022/07/25 06:56:18;;;;;;;10.02;8.32;;;27.90;46.60;;;;;;5114313;28;20031;-75
2022/07/25 06:58:44;;;;;;;10.23;9.20;;;28.00;47.00;;;;;;5130034;27;20429;-75
2022/07/25 07:01:09;;;;;;;11.02;9.52;;;28.10;46.70;;;;;;5114161;28;20114;-77
2022/07/25 07:03:37;;;;;;;13.32;9.68;;;28.20;46.60;;;;;;5114111;28;20055;-76
2022/07/25 07:06:04;;;;;;;12.73;9.80;;;28.20;46.40;;;;;;5113983;28;20016;-75
2022/07/25 07:08:30;;;;;;;11.73;9.07;;;28.30;46.10;;;;;;5113956;28;20476;-75
2022/07/25 07:10:55;;;;;;;12.93;9.32;;;28.40;45.60;;;;;;5114005;28;20051;-76
2022/07/25 07:13:22;;;;;;;14.60;9.80;;;28.50;45.00;;;;;;5113737;28;20062;-76
2022/07/25 07:15:49;;;;;;;8.07;7.28;;;28.50;43.80;;;;;;5114212;28;20437;-76
2022/07/25 07:18:16;;;;;;;11.90;7.40;;;28.60;38.10;;;;;;5114167;28;20063;-76
2022/07/25 07:20:42;;;;;;;8.45;7.28;;;28.70;38.80;;;;;;5113948;28;20043;-76
2022/07/25 07:23:08;;;;;;;7.88;7.05;;;28.80;38.20;;;;;;5113781;28;20443;-75
2022/07/25 07:25:33;;;;;;;8.20;7.05;;;28.80;37.40;;;;;;5113949;28;20053;-76
2022/07/25 07:27:59;;;;;;;8.52;6.78;;;28.90;37.70;;;;;;5114157;28;20023;-76
2022/07/25 07:30:25;;;;;;;8.43;5.82;;;29.00;36.70;;;;;;5113707;28;20106;-75
2022/07/25 07:32:50;;;;;;;8.73;6.57;;;29.00;35.10;;;;;;5113514;28;20027;-75
2022/07/25 07:35:17;;;;;;;7.88;6.00;;;29.00;34.60;;;;;;5113640;28;20027;-75
2022/07/25 07:37:44;;;;;;;6.57;5.97;;;29.10;33.80;;;;;;5113594;28;20019;-75
2022/07/25 07:40:13;;;;;;;6.85;6.10;;;29.20;34.80;;;;;;5113597;28;20035;-76
2022/07/25 07:42:44;;;;;;;10.48;6.30;;;29.20;33.40;;;;;;5113453;28;20058;-75
2022/07/25 07:45:18;;;;;;;10.77;6.10;;;29.20;34.40;;;;;;5113376;28;20487;-74
2022/07/25 07:47:48;;;;;;;6.22;5.63;;;29.20;33.10;;;;;;5113270;28;20020;-75
2022/07/25 07:50:15;;;;;;;8.50;5.72;;;29.30;33.10;;;;;;5113238;28;20027;-75
2022/07/25 07:52:42;;;;;;;6.72;5.93;;;29.30;33.30;;;;;;5113260;28;20035;-75
2022/07/25 07:57:52;;;;;;;6.95;5.75;;;29.50;32.30;;;;;;5113453;28;20054;-75
2022/07/25 08:00:19;;;;;;;6.30;5.68;;;29.60;31.80;;;;;;5113249;28;20036;-74
2022/07/25 08:02:47;;;;;;;5.90;5.40;;;29.60;30.80;;;;;;5113266;28;20028;-75
2022/07/25 08:05:20;;;;;;;6.85;5.30;;;29.60;31.10;;;;;;5113161;28;20020;-75
2022/07/25 08:07:45;;;;;;;6.00;5.40;;;29.70;31.10;;;;;;5113161;28;20487;-75
2022/07/25 08:10:11;;;;;;;8.32;5.75;;;29.70;31.50;;;;;;5112951;28;20031;-75
2022/07/25 08:12:41;;;;;;;6.72;5.70;;;29.80;31.70;;;;;;5112935;28;20026;-75
2022/07/25 08:15:08;;;;;;;7.95;6.43;;;29.80;31.60;;;;;;5113086;28;20024;-75
2022/07/25 08:17:33;;;;;;;6.50;5.90;;;29.70;31.90;;;;;;5113116;28;20084;-75
2022/07/25 08:19:59;;;;;;;7.32;6.00;;;29.70;31.40;;;;;;5112943;28;20110;-75
2022/07/25 08:22:44;;;;;;;6.78;5.70;;;29.80;31.80;;;;;;5112874;28;20032;-75
2022/07/25 08:25:13;;;;;;;5.50;5.00;;;29.80;32.10;;;;;;5112910;28;20016;-75
2022/07/25 08:27:38;;;;;;;9.43;5.88;;;29.90;31.40;;;;;;5113071;28;20107;-75
2022/07/25 08:30:06;;;;;;;7.45;6.07;;;29.90;31.70;;;;;;5113123;28;20047;-75
2022/07/25 08:32:32;;;;;;;7.65;6.32;;;30.00;32.70;;;;;;5112916;28;20020;-75
2022/07/25 08:34:58;;;;;;;7.07;6.38;;;30.20;32.60;;;;;;5112843;28;20464;-75
2022/07/25 08:37:24;;;;;;;6.68;6.05;;;30.20;33.60;;;;;;5112885;28;20028;-75
2022/07/25 08:39:51;;;;;;;9.82;6.00;;;30.30;32.70;;;;;;5112879;28;20046;-75
2022/07/25 08:42:18;;;;;;;7.32;6.22;;;30.30;32.20;;;;;;5112810;28;20051;-75
2022/07/25 08:44:48;;;;;;;7.18;6.13;;;30.40;32.50;;;;;;5113009;28;20404;-75
2022/07/25 08:47:14;;;;;;;11.73;6.72;;;30.20;32.50;;;;;;5116287;28;20047;-75
2022/07/25 08:49:40;;;;;;;8.05;6.47;;;30.20;32.30;;;;;;5112971;28;20031;-75
2022/07/25 08:52:07;;;;;;;6.57;5.97;;;30.30;32.20;;;;;;5112970;28;20102;-75
2022/07/25 08:54:34;;;;;;;9.98;6.47;;;30.30;32.10;;;;;;5112736;28;20024;-75
2022/07/25 08:57:00;;;;;;;6.22;5.47;;;30.50;32.10;;;;;;5111979;28;20040;-76
2022/07/25 08:59:25;;;;;;;6.80;5.97;;;30.60;31.10;;;;;;5111634;28;20149;-76
2022/07/25 09:01:51;;;;;;;8.70;6.32;;;30.60;31.40;;;;;;5111588;28;20100;-76
2022/07/25 09:04:17;;;;;;;7.13;6.43;;;30.70;31.00;;;;;;5110898;28;20022;-76
2022/07/25 09:06:50;;;;;;;7.82;5.95;;;30.70;31.20;;;;;;5113766;28;20023;-76
2022/07/25 09:09:16;;;;;;;7.13;6.47;;;30.80;30.70;;;;;;5114806;28;20388;-76
2022/07/25 09:11:42;;;;;;;8.60;6.50;;;30.90;31.10;;;;;;5114924;28;20098;-76
2022/07/25 09:14:10;;;;;;;7.10;6.18;;;31.00;31.50;;;;;;5114840;28;20124;-76
2022/07/25 09:16:38;;;;;;;10.48;6.68;;;31.10;30.70;;;;;;5114502;28;20165;-75
2022/07/25 09:19:19;;;;;;;7.18;6.50;;;30.90;30.80;;;;;;5114537;28;20363;-76
2022/07/25 09:21:56;;;;;;;7.20;6.47;;;31.00;31.00;;;;;;5114573;28;20028;-76
2022/07/25 09:24:22;;;;;;;11.57;6.30;;;31.10;30.90;;;;;;5115007;28;20020;-75
2022/07/25 09:26:49;;;;;;;7.47;6.35;;;31.10;30.80;;;;;;5130774;28;20589;-76
2022/07/25 09:29:34;;;;;;;6.95;6.20;;;31.20;31.10;;;;;;5114824;28;20514;-76
2022/07/25 09:32:12;;;;;;;8.50;6.47;;;31.30;30.70;;;;;;5114665;28;20026;-75
2022/07/25 09:34:40;;;;;;;7.38;6.68;;;31.40;31.40;;;;;;5114777;28;20426;-74
2022/07/25 09:37:08;;;;;;;7.50;6.43;;;31.50;30.60;;;;;;5114642;28;20018;-74
2022/07/25 09:39:40;;;;;;;7.07;6.28;;;31.50;30.40;;;;;;5114651;28;20058;-74
2022/07/25 09:42:19;;;;;;;7.18;6.00;;;31.60;30.30;;;;;;5114549;28;20038;-75
2022/07/25 09:45:11;;;;;;;6.93;5.78;;;31.60;29.10;;;;;;5114775;28;20031;-74
2022/07/25 09:47:49;;;;;;;6.53;5.93;;;31.80;28.80;;;;;;5114556;28;20022;-74
2022/07/25 09:50:15;;;;;;;9.75;5.78;;;31.70;28.60;;;;;;5114516;28;20024;-74
2022/07/25 09:52:41;;;;;;;7.68;6.32;;;31.50;28.00;;;;;;5114390;28;20043;-74
2022/07/25 09:55:09;;;;;;;6.82;6.20;;;31.50;28.60;;;;;;5114247;28;20030;-75
2022/07/25 09:57:35;;;;;;;6.28;5.55;;;31.50;28.00;;;;;;5093619;27;1057817;-75
2022/07/25 10:00:01;;;;;;;6.88;5.72;;;31.60;27.50;;;;;;5115536;28;20035;-74
2022/07/25 10:02:54;;;;;;;6.05;5.50;;;31.70;28.10;;;;;;5115397;28;20044;-74
2022/07/25 10:05:29;;;;;;;5.22;4.72;;;31.80;25.90;;;;;;5114880;28;20022;-74
2022/07/25 10:07:55;;;;;;;7.28;5.38;;;31.90;25.30;;;;;;5114993;28;20411;-73
2022/07/25 10:10:25;;;;;;;5.60;5.10;;;32.00;26.20;;;;;;5115415;28;20030;-74
2022/07/25 10:13:27;;;;;;;7.15;5.18;;;32.10;25.10;;;;;;5116077;28;20024;-75
2022/07/25 10:15:53;;;;;;;6.32;5.70;;;32.20;25.10;;;;;;5115896;27;20054;-74
2022/07/25 10:18:21;;;;;;;8.57;5.55;;;32.20;25.10;;;;;;5114767;28;20059;-74
2022/07/25 10:20:49;;;;;;;7.70;5.15;;;32.30;24.60;;;;;;5114681;28;20094;-74
2022/07/25 10:23:24;;;;;;;7.35;4.95;;;32.40;24.30;;;;;;5114729;28;20053;-74
2022/07/25 10:26:09;;;;;;;10.05;5.75;;;32.60;24.20;;;;;;5114683;28;20023;-74
2022/07/25 10:28:34;;;;;;;;;;;32.70;23.40;;;;;;5073704;28;20029;-75
2022/07/25 10:31:00;;;;;;;7.38;5.15;;;32.80;23.30;;;;;;5011230;28;20395;-74
2022/07/25 10:33:26;;;;;;;7.40;5.35;;;33.00;23.80;;;;;;5011060;28;20026;-75
2022/07/25 10:35:52;;;;;;;7.43;5.30;;;33.10;23.50;;;;;;5011052;28;20034;-75
2022/07/25 10:38:23;;;;;;;6.05;5.55;;;33.20;23.30;;;;;;5011336;28;20075;-74
2022/07/25 10:40:49;;;;;;;7.95;5.85;;;33.10;23.30;;;;;;5011184;28;20033;-74
2022/07/25 10:43:20;;;;;;;7.03;5.47;;;33.30;23.30;;;;;;5011065;28;20040;-74
2022/07/25 10:45:55;;;;;;;6.32;5.38;;;33.40;22.10;;;;;;5011167;28;20074;-75
2022/07/25 10:48:27;;;;;;;6.10;5.10;;;33.60;22.90;;;;;;5011316;28;20041;-75
2022/07/25 10:51:02;;;;;;;7.80;5.60;;;33.50;21.70;;;;;;5011162;28;20026;-75
2022/07/25 10:53:34;;;;;;;9.18;5.32;;;33.50;22.30;;;;;;5011239;28;20033;-74
2022/07/25 10:56:06;;;;;;;5.30;4.80;;;33.40;21.60;;;;;;5010999;28;20030;-74
2022/07/25 10:58:58;;;;;;;5.88;4.82;;;33.60;21.40;;;;;;5010989;28;20058;-75
2022/07/25 11:01:26;;;;;;;5.40;4.53;;;33.50;21.70;;;;;;5011016;28;20046;-75
2022/07/25 11:03:53;;;;;;;6.35;5.10;;;33.40;21.70;;;;;;5012474;28;20101;-76
2022/07/25 11:06:30;;;;;;;4.97;4.47;;;33.20;21.80;;;;;;5011377;28;20061;-75
2022/07/25 11:08:59;;;;;;;5.63;4.80;;;33.30;22.10;;;;;;5011081;28;20029;-75
2022/07/25 11:11:39;;;;;;;4.68;4.28;;;33.40;21.60;;;;;;5010685;28;20335;-75
2022/07/25 11:14:16;;;;;;;6.28;4.45;;;33.40;20.70;;;;;;5010867;28;20480;-77
2022/07/25 11:16:47;;;;;;;5.55;4.10;;;33.40;20.90;;;;;;5010609;28;20105;-75
2022/07/25 11:19:17;;;;;;;4.32;3.85;;;33.40;20.10;;;;;;5010795;28;20036;-75
2022/07/25 11:21:54;;;;;;;7.75;4.85;;;33.50;21.20;;;;;;5009376;28;20443;-75
2022/07/25 11:24:21;;;;;;;8.50;4.22;;;33.50;20.20;;;;;;5010435;28;20018;-76
2022/07/25 11:26:49;;;;;;;8.55;4.18;;;33.40;20.80;;;;;;5010614;28;20033;-76
2022/07/25 11:29:23;;;;;;;4.68;3.53;;;33.60;20.50;;;;;;5010037;28;20026;-75
2022/07/25 11:31:58;;;;;;;6.72;3.95;;;33.60;19.20;;;;;;5011426;28;20053;-77
2022/07/25 11:34:29;;;;;;;8.02;4.28;;;33.70;19.20;;;;;;5011019;28;20117;-75
2022/07/25 11:36:57;;;;;;;4.68;4.18;;;33.80;19.70;;;;;;5010558;28;20022;-75
2022/07/25 11:39:28;;;;;;;5.85;3.92;;;33.80;19.60;;;;;;5010304;28;20049;-75
2022/07/25 11:42:17;;;;;;;4.53;3.42;;;33.90;19.00;;;;;;5010091;28;20034;-76
2022/07/25 11:44:49;;;;;;;3.92;3.15;;;34.20;18.90;;;;;;5010611;28;20019;-75
2022/07/25 11:47:26;;;;;;;4.15;3.63;;;34.20;18.40;;;;;;5010104;28;20509;-75
2022/07/25 11:49:54;;;;;;;5.30;3.80;;;34.20;18.80;;;;;;5010462;28;20501;-75
2022/07/25 11:52:35;;;;;;;4.20;3.42;;;34.20;19.00;;;;;;5010055;28;20030;-75
2022/07/25 11:55:09;;;;;;;7.40;3.80;;;34.20;18.70;;;;;;5008848;28;20026;-75
2022/07/25 11:57:43;;;;;;;6.13;3.97;;;34.20;18.70;;;;;;5010035;28;20054;-75
2022/07/25 12:00:19;;;;;;;4.38;3.97;;;34.40;18.30;;;;;;5010347;28;20030;-75
2022/07/25 12:02:46;;;;;;;5.70;3.53;;;34.50;18.00;;;;;;5009948;28;20394;-75
2022/07/25 12:05:14;;;;;;;3.90;3.60;;;34.40;18.00;;;;;;5010251;28;20026;-75
2022/07/25 12:07:46;;;;;;;4.10;3.15;;;34.60;17.60;;;;;;5010248;28;20022;-75
2022/07/25 12:10:17;;;;;;;4.00;3.50;;;34.50;16.60;;;;;;5010142;28;20077;-75
2022/07/25 12:12:51;;;;;;;4.15;3.60;;;34.70;17.10;;;;;;5010065;28;20082;-76
2022/07/25 12:15:20;;;;;;;6.43;3.80;;;34.80;18.10;;;;;;5014680;28;20021;-76
2022/07/25 12:17:46;;;;;;;5.03;3.90;;;34.80;17.80;;;;;;5010103;28;20441;-75
2022/07/25 12:20:17;;;;;;;5.57;3.40;;;34.90;16.70;;;;;;5009881;28;20382;-76
2022/07/25 12:22:43;;;;;;;5.57;3.35;;;34.80;16.20;;;;;;5010314;28;20030;-76
2022/07/25 12:25:10;;;;;;;4.78;3.53;;;34.80;17.00;;;;;;5010201;28;20443;-75
2022/07/25 12:27:35;;;;;;;3.78;3.20;;;34.80;16.80;;;;;;5009788;28;20071;-75
2022/07/25 12:30:02;;;;;;;3.35;3.05;;;34.90;16.60;;;;;;5010047;28;20018;-75
2022/07/25 12:32:27;;;;;;;3.75;3.42;;;35.10;16.60;;;;;;5009873;28;20029;-74
2022/07/25 12:34:53;;;;;;;5.25;3.60;;;34.90;16.10;;;;;;5009853;28;20378;-75
2022/07/25 12:37:20;;;;;;;4.70;4.30;;;34.80;17.20;;;;;;5009695;28;20497;-75
2022/07/25 12:39:46;;;;;;;7.63;4.10;;;35.30;17.30;;;;;;5009863;28;20466;-76
2022/07/25 12:42:11;;;;;;;6.45;4.60;;;35.40;16.80;;;;;;5012718;28;20082;-75
2022/07/25 12:44:37;;;;;;;7.45;4.32;;;35.20;17.00;;;;;;5013128;28;20363;-75
2022/07/25 12:47:03;;;;;;;5.03;3.97;;;35.10;17.80;;;;;;5012089;28;20034;-75